Terminal Aerodrome Forecast
Issued by NWS Binghamton, NY

Home | Current Version | Previous Version | Text Only | Print | Product List | Glossary On
Versions: 1 2 3 4 5 6 7 8 9 10 11 12 13 14 15
844
FTUS41 KBGM 211733
TAFAVP
TAF
KAVP 211733Z 2118/2218 19007KT P6SM BKN200
     FM220600 19003KT P6SM OVC050
     FM220900 21003KT P6SM -DZ OVC030
     FM221300 22004KT P6SM BKN040=

USA.gov is the U.S. government's official web portal to all federal, state and local government web resources and services.